Time;durP1;ratioP1;P1;durP2;ratioP2;P2;SDS_P1;SDS_P2;PMS_P1;PMS_P2;Temp;Humidity;BMP_temperature;BMP_pressure;BME280_temperature;BME280_humidity;BME280_pressure;Samples;Min_cycle;Max_cycle;Signal;HPM_P1;HPM_P2
2021/08/11 00:01:50;;;;;;;10.07;4.45;;;;;;;;;;6119424;23;20173;-91
2021/08/11 00:04:55;;;;;;;10.25;4.60;;;;;;;;;;6119979;23;20178;-90
2021/08/11 00:08:01;;;;;;;11.13;5.10;;;;;;;;;;6118985;23;20216;-92
2021/08/11 00:11:06;;;;;;;8.05;4.88;;;;;;;;;;6119010;23;20248;-90
2021/08/11 00:14:11;;;;;;;10.20;4.50;;;;;;;;;;6118774;23;20504;-92
2021/08/11 00:17:16;;;;;;;9.32;5.40;;;;;;;;;;6119092;23;20172;-91
2021/08/11 00:20:22;;;;;;;13.85;6.03;;;;;;;;;;6120060;23;20170;-90
2021/08/11 00:23:28;;;;;;;8.52;5.30;;;;;;;;;;6120052;23;20181;-91
2021/08/11 00:26:33;;;;;;;13.25;5.70;;;;;;;;;;6117472;23;20196;-90
2021/08/11 00:29:38;;;;;;;9.35;4.53;;;;;;;;;;6118055;23;20173;-91
2021/08/11 00:32:44;;;;;;;7.72;4.68;;;;;;;;;;6117633;23;20290;-91
2021/08/11 00:35:50;;;;;;;11.25;5.03;;;;;;;;;;6116596;23;20172;-92
2021/08/11 00:38:56;;;;;;;11.18;5.05;;;;;;;;;;6117251;23;20172;-92
2021/08/11 00:42:01;;;;;;;9.98;4.38;;;;;;;;;;6115466;23;20210;-91
2021/08/11 00:45:06;;;;;;;8.32;4.85;;;;;;;;;;6118816;23;20173;-91
2021/08/11 00:48:13;;;;;;;12.90;4.30;;;;;;;;;;6116105;23;20709;-90
2021/08/11 00:51:18;;;;;;;6.88;4.10;;;;;;;;;;6119278;23;20598;-89
2021/08/11 00:54:26;;;;;;;8.10;4.32;;;;;;;;;;6117987;23;20258;-89
2021/08/11 00:57:33;;;;;;;7.90;4.43;;;;;;;;;;6118139;23;20168;-90
2021/08/11 01:00:43;;;;;;;11.07;5.00;;;;;;;;;;6119579;23;20201;-91
2021/08/11 01:03:48;;;;;;;9.02;4.65;;;;;;;;;;6119347;23;20613;-91
2021/08/11 01:06:54;;;;;;;14.13;5.43;;;;;;;;;;6118510;23;20222;-92
2021/08/11 01:10:03;;;;;;;13.60;5.18;;;;;;;;;;6120335;23;20188;-91
2021/08/11 01:13:13;;;;;;;15.35;5.13;;;;;;;;;;6118021;23;20169;-91
2021/08/11 01:16:21;;;;;;;10.88;5.10;;;;;;;;;;6119995;23;20169;-91
2021/08/11 01:19:27;;;;;;;11.43;5.70;;;;;;;;;;6120403;23;20216;-90
2021/08/11 01:22:34;;;;;;;8.48;5.00;;;;;;;;;;6117357;23;20177;-90
2021/08/11 01:25:42;;;;;;;9.95;5.10;;;;;;;;;;6119997;23;20177;-91
2021/08/11 01:28:57;;;;;;;12.68;5.68;;;;;;;;;;6117123;23;20214;-91
2021/08/11 01:32:08;;;;;;;10.80;5.07;;;;;;;;;;6119295;23;20241;-90
2021/08/11 01:35:15;;;;;;;9.98;5.20;;;;;;;;;;6118536;23;20165;-90
2021/08/11 01:38:22;;;;;;;7.88;4.70;;;;;;;;;;6116278;23;20169;-90
2021/08/11 01:41:31;;;;;;;7.18;4.63;;;;;;;;;;6116117;23;20161;-90
2021/08/11 01:44:38;;;;;;;15.88;4.95;;;;;;;;;;6116277;23;20173;-92
2021/08/11 01:47:47;;;;;;;7.50;4.55;;;;;;;;;;6116015;23;20197;-91
2021/08/11 01:50:54;;;;;;;13.70;5.60;;;;;;;;;;6117696;23;20169;-91
2021/08/11 01:54:03;;;;;;;8.93;5.25;;;;;;;;;;6117273;23;20165;-90
2021/08/11 01:57:12;;;;;;;11.02;5.60;;;;;;;;;;6115939;23;20289;-89
2021/08/11 02:00:17;;;;;;;9.32;5.30;;;;;;;;;;6116326;23;20240;-90
2021/08/11 02:03:24;;;;;;;11.20;5.10;;;;;;;;;;6117264;23;20298;-90
2021/08/11 02:06:32;;;;;;;11.43;5.47;;;;;;;;;;6117037;23;20192;-91
2021/08/11 02:09:43;;;;;;;11.55;5.70;;;;;;;;;;6116915;23;20598;-90
2021/08/11 02:12:48;;;;;;;12.60;5.45;;;;;;;;;;6117257;23;20173;-91
2021/08/11 02:15:54;;;;;;;9.93;5.60;;;;;;;;;;6116769;23;20176;-91
2021/08/11 02:19:00;;;;;;;14.68;5.90;;;;;;;;;;6115447;23;20173;-89
2021/08/11 02:22:07;;;;;;;9.77;4.90;;;;;;;;;;6118949;23;20157;-90
2021/08/11 02:25:14;;;;;;;13.13;5.43;;;;;;;;;;6117952;23;20612;-91
2021/08/11 02:28:24;;;;;;;12.18;5.85;;;;;;;;;;6116220;23;20609;-90
2021/08/11 02:31:36;;;;;;;13.80;5.15;;;;;;;;;;6116375;23;20165;-90
2021/08/11 02:34:44;;;;;;;10.45;5.05;;;;;;;;;;6116848;23;20169;-90
2021/08/11 02:37:55;;;;;;;10.23;4.75;;;;;;;;;;6115926;23;20176;-91
2021/08/11 02:41:03;;;;;;;11.98;5.07;;;;;;;;;;6118773;23;20168;-91
2021/08/11 02:44:10;;;;;;;11.82;4.75;;;;;;;;;;6116249;23;20174;-92
2021/08/11 02:47:17;;;;;;;8.73;4.85;;;;;;;;;;6116202;23;20189;-90
2021/08/11 02:50:23;;;;;;;9.35;4.85;;;;;;;;;;6115933;23;20173;-90
2021/08/11 02:53:31;;;;;;;6.88;4.88;;;;;;;;;;6116141;23;20165;-90
2021/08/11 02:56:36;;;;;;;8.50;5.03;;;;;;;;;;6116638;23;20242;-90
2021/08/11 02:59:42;;;;;;;10.23;5.07;;;;;;;;;;6116584;23;20497;-91
2021/08/11 03:02:50;;;;;;;10.57;4.93;;;;;;;;;;6118038;23;20197;-90
2021/08/11 03:05:57;;;;;;;7.40;4.82;;;;;;;;;;6117219;23;20189;-90
2021/08/11 03:09:04;;;;;;;9.13;5.20;;;;;;;;;;6116758;23;20173;-90
2021/08/11 03:12:12;;;;;;;11.00;5.47;;;;;;;;;;6117034;23;20185;-91
2021/08/11 03:15:20;;;;;;;9.30;5.13;;;;;;;;;;6116642;23;20173;-90
2021/08/11 03:18:26;;;;;;;8.30;5.03;;;;;;;;;;6116918;23;20214;-91
2021/08/11 03:21:38;;;;;;;11.07;5.10;;;;;;;;;;6117653;23;20466;-91
2021/08/11 03:24:45;;;;;;;12.98;5.40;;;;;;;;;;6117405;23;20173;-90
2021/08/11 03:27:51;;;;;;;8.57;5.30;;;;;;;;;;6115989;23;20216;-90
2021/08/11 03:30:59;;;;;;;15.80;6.40;;;;;;;;;;6116794;23;20157;-91
2021/08/11 03:34:04;;;;;;;11.07;5.60;;;;;;;;;;6122168;23;20165;-90
2021/08/11 03:37:14;;;;;;;10.80;5.18;;;;;;;;;;6117714;23;20177;-91
2021/08/11 03:40:21;;;;;;;10.57;5.85;;;;;;;;;;6120092;23;20173;-90
2021/08/11 03:43:26;;;;;;;17.45;5.90;;;;;;;;;;6118370;23;20174;-89
2021/08/11 03:46:33;;;;;;;11.60;6.32;;;;;;;;;;6118174;23;20178;-89
2021/08/11 03:49:39;;;;;;;14.90;6.03;;;;;;;;;;6116985;23;20169;-90
2021/08/11 03:52:47;;;;;;;17.73;6.55;;;;;;;;;;6117748;23;20201;-90
2021/08/11 03:55:57;;;;;;;12.32;6.05;;;;;;;;;;6117152;23;20610;-92
2021/08/11 03:59:05;;;;;;;16.92;5.93;;;;;;;;;;6118267;23;20506;-89
2021/08/11 04:02:10;;;;;;;13.15;5.72;;;;;;;;;;6117156;23;20193;-90
2021/08/11 04:05:15;;;;;;;16.52;6.00;;;;;;;;;;6136042;23;20169;-90
2021/08/11 04:08:20;;;;;;;13.55;5.60;;;;;;;;;;6136404;23;20317;-90
2021/08/11 04:11:26;;;;;;;18.45;6.43;;;;;;;;;;6136566;23;20173;-89
2021/08/11 04:14:31;;;;;;;15.30;6.25;;;;;;;;;;6135845;23;20173;-89
2021/08/11 04:17:35;;;;;;;13.45;6.28;;;;;;;;;;6135375;23;20164;-89
2021/08/11 04:20:41;;;;;;;13.73;5.82;;;;;;;;;;6136442;23;20161;-90
2021/08/11 04:23:46;;;;;;;16.35;6.30;;;;;;;;;;6136820;23;20253;-90
2021/08/11 04:26:53;;;;;;;27.05;6.43;;;;;;;;;;6134400;23;20193;-89
2021/08/11 04:29:58;;;;;;;11.93;6.15;;;;;;;;;;6134788;23;20177;-90
2021/08/11 04:33:02;;;;;;;16.00;6.38;;;;;;;;;;6135810;23;20173;-90
2021/08/11 04:36:07;;;;;;;14.85;6.20;;;;;;;;;;6135423;23;20169;-89
2021/08/11 04:39:12;;;;;;;13.57;5.93;;;;;;;;;;6134032;23;20665;-91
2021/08/11 04:42:19;;;;;;;16.58;6.22;;;;;;;;;;6136595;23;20247;-89
2021/08/11 04:45:24;;;;;;;9.82;5.40;;;;;;;;;;6133692;23;20739;-89
2021/08/11 04:48:30;;;;;;;11.02;6.15;;;;;;;;;;6139189;23;20197;-90
2021/08/11 04:51:38;;;;;;;9.68;5.18;;;;;;;;;;6137281;23;20632;-91
2021/08/11 04:54:43;;;;;;;12.93;5.82;;;;;;;;;;6136453;23;20480;-90
2021/08/11 04:57:50;;;;;;;10.60;5.57;;;;;;;;;;6138615;23;20157;-90
2021/08/11 05:00:54;;;;;;;9.93;5.75;;;;;;;;;;6138683;23;20190;-89
2021/08/11 05:03:59;;;;;;;12.38;5.40;;;;;;;;;;6138035;23;20189;-90
2021/08/11 05:07:05;;;;;;;7.35;5.13;;;;;;;;;;6136962;23;20188;-91
2021/08/11 05:10:10;;;;;;;11.40;5.28;;;;;;;;;;6137816;23;20169;-90
2021/08/11 05:13:16;;;;;;;11.85;6.13;;;;;;;;;;6136727;23;20174;-91
2021/08/11 05:16:21;;;;;;;10.55;4.95;;;;;;;;;;6138493;23;20328;-91
2021/08/11 05:19:27;;;;;;;11.38;5.68;;;;;;;;;;6136883;23;20169;-90
2021/08/11 05:22:32;;;;;;;10.25;5.40;;;;;;;;;;6139755;23;20161;-91
2021/08/11 05:25:37;;;;;;;11.73;5.70;;;;;;;;;;6139378;23;20165;-92
2021/08/11 05:28:45;;;;;;;13.95;4.82;;;;;;;;;;6139830;23;20200;-90
2021/08/11 05:31:50;;;;;;;15.40;5.22;;;;;;;;;;6137753;23;20170;-91
2021/08/11 05:34:55;;;;;;;10.10;5.32;;;;;;;;;;6140312;23;20511;-90
2021/08/11 05:38:02;;;;;;;8.18;5.13;;;;;;;;;;6137690;23;20165;-90
2021/08/11 05:41:09;;;;;;;12.98;5.00;;;;;;;;;;6138766;23;20173;-91
2021/08/11 05:44:16;;;;;;;8.80;5.18;;;;;;;;;;6138052;23;20181;-90
2021/08/11 05:47:21;;;;;;;9.90;5.00;;;;;;;;;;6139421;23;20245;-90
2021/08/11 05:50:26;;;;;;;10.32;5.38;;;;;;;;;;6141038;23;20217;-92
2021/08/11 05:53:31;;;;;;;9.10;4.70;;;;;;;;;;6138489;23;20198;-90
2021/08/11 05:56:36;;;;;;;12.63;5.70;;;;;;;;;;6139687;23;20173;-90
2021/08/11 05:59:43;;;;;;;11.02;5.60;;;;;;;;;;6138446;23;20234;-91
2021/08/11 06:02:48;;;;;;;14.90;5.40;;;;;;;;;;6144838;23;20193;-91
2021/08/11 06:06:01;;;;;;;11.57;5.70;;;;;;;;;;6124840;23;20150;-88
2021/08/11 06:09:06;;;;;;;10.32;5.85;;;;;;;;;;6123791;23;20203;-91
2021/08/11 06:12:11;;;;;;;12.98;5.50;;;;;;;;;;6122453;23;20172;-91
2021/08/11 06:15:18;;;;;;;11.65;5.20;;;;;;;;;;6122684;23;20293;-90
2021/08/11 06:18:23;;;;;;;8.20;4.60;;;;;;;;;;6124399;23;20196;-89
2021/08/11 06:21:29;;;;;;;9.35;4.45;;;;;;;;;;6120975;23;20185;-90
2021/08/11 06:24:34;;;;;;;8.48;4.53;;;;;;;;;;6120577;23;20157;-91
2021/08/11 06:27:39;;;;;;;6.65;4.35;;;;;;;;;;6124947;23;20201;-91
2021/08/11 06:30:46;;;;;;;8.35;4.18;;;;;;;;;;6120753;23;20177;-90
2021/08/11 06:33:52;;;;;;;9.57;4.68;;;;;;;;;;6122987;23;20551;-90
2021/08/11 06:36:57;;;;;;;12.68;4.43;;;;;;;;;;6126325;23;20601;-91
2021/08/11 06:40:02;;;;;;;9.45;4.15;;;;;;;;;;6125258;23;20617;-91
2021/08/11 06:43:07;;;;;;;12.05;5.18;;;;;;;;;;6125846;23;20164;-91
2021/08/11 06:46:17;;;;;;;9.07;4.57;;;;;;;;;;6128217;23;20152;-90
2021/08/11 06:49:22;;;;;;;15.45;5.10;;;;;;;;;;6126427;23;20205;-90
2021/08/11 06:52:32;;;;;;;9.82;4.93;;;;;;;;;;6125008;23;20209;-92
2021/08/11 06:55:37;;;;;;;6.70;4.28;;;;;;;;;;6125744;23;20177;-91
2021/08/11 06:58:43;;;;;;;8.18;4.78;;;;;;;;;;6124664;23;20258;-91
2021/08/11 07:01:50;;;;;;;14.00;5.20;;;;;;;;;;6122274;23;20192;-91
2021/08/11 07:04:54;;;;;;;13.57;5.25;;;;;;;;;;6119579;23;20500;-91
2021/08/11 07:07:59;;;;;;;14.30;5.40;;;;;;;;;;6121231;23;20180;-92
2021/08/11 07:11:05;;;;;;;12.70;5.00;;;;;;;;;;6122003;23;20173;-92
2021/08/11 07:14:10;;;;;;;10.45;4.85;;;;;;;;;;6126041;23;20173;-91
2021/08/11 07:17:17;;;;;;;12.25;5.30;;;;;;;;;;6123293;23;20165;-92
2021/08/11 07:20:22;;;;;;;11.88;4.93;;;;;;;;;;6124387;23;20165;-90
2021/08/11 07:23:27;;;;;;;11.80;4.60;;;;;;;;;;6121642;23;20296;-92
2021/08/11 07:26:33;;;;;;;11.68;4.75;;;;;;;;;;6122795;23;20165;-91
2021/08/11 07:29:38;;;;;;;13.00;5.05;;;;;;;;;;6121524;23;20193;-90
2021/08/11 07:32:44;;;;;;;10.13;4.43;;;;;;;;;;6124032;23;20194;-92
2021/08/11 07:35:49;;;;;;;10.38;5.10;;;;;;;;;;6140041;23;20173;-90
2021/08/11 07:38:54;;;;;;;11.77;5.28;;;;;;;;;;6120928;23;20222;-91
2021/08/11 07:42:00;;;;;;;9.45;4.32;;;;;;;;;;6122034;23;20161;-91
2021/08/11 07:45:06;;;;;;;9.63;5.10;;;;;;;;;;6123358;23;20673;-90
2021/08/11 07:48:12;;;;;;;14.73;4.93;;;;;;;;;;6125607;23;20197;-91
2021/08/11 07:51:17;;;;;;;10.70;4.47;;;;;;;;;;6123471;23;20181;-92
2021/08/11 07:54:22;;;;;;;11.27;4.97;;;;;;;;;;6123857;23;20425;-92
2021/08/11 07:57:27;;;;;;;10.80;4.45;;;;;;;;;;6123484;23;20249;-92
2021/08/11 08:00:32;;;;;;;8.38;4.05;;;;;;;;;;6121747;23;20165;-93
2021/08/11 08:04:00;;;;;;;9.40;4.80;;;;;;;;;;6128807;23;20149;-91
2021/08/11 08:07:07;;;;;;;16.40;13.00;;;;;;;;;;6123748;23;20188;-91
2021/08/11 08:10:13;;;;;;;13.05;4.25;;;;;;;;;;6145556;23;20176;-90
2021/08/11 08:13:28;;;;;;;9.80;4.15;;;;;;;;;;6128230;23;20173;-89
2021/08/11 08:16:33;;;;;;;10.05;4.32;;;;;;;;;;6128530;23;20176;-90
2021/08/11 08:19:39;;;;;;;9.00;3.78;;;;;;;;;;6128323;23;20168;-91
2021/08/11 08:22:47;;;;;;;10.73;4.00;;;;;;;;;;6127170;23;20169;-91
2021/08/11 08:25:54;;;;;;;9.60;3.80;;;;;;;;;;6127172;23;20184;-91
2021/08/11 08:29:00;;;;;;;6.95;3.63;;;;;;;;;;6125814;23;20173;-89
2021/08/11 08:32:05;;;;;;;7.50;3.45;;;;;;;;;;6126873;23;20165;-91
2021/08/11 08:35:11;;;;;;;9.10;3.90;;;;;;;;;;6126442;23;20220;-90
2021/08/11 08:38:19;;;;;;;8.07;4.07;;;;;;;;;;6126157;23;20172;-92
2021/08/11 08:41:24;;;;;;;8.55;3.85;;;;;;;;;;6126212;23;20216;-89
2021/08/11 08:44:30;;;;;;;9.63;3.60;;;;;;;;;;6126841;23;20247;-91
2021/08/11 08:47:43;;;;;;;8.57;3.80;;;;;;;;;;6125526;23;20213;-91
2021/08/11 08:54:18;;;;;;;12.18;4.40;;;;;;;;;;6128758;23;20164;-91
2021/08/11 09:00:43;;;;;;;6.60;3.35;;;;;;;;;;6127911;23;20214;-90
2021/08/11 09:03:51;;;;;;;12.30;3.53;;;;;;;;;;6129290;23;20148;-92
2021/08/11 09:07:04;;;;;;;6.30;3.40;;;;;;;;;;6128999;23;20173;-91
2021/08/11 09:10:29;;;;;;;9.93;3.72;;;;;;;;;;6128270;23;20189;-90
2021/08/11 09:13:40;;;;;;;9.95;3.60;;;;;;;;;;6126908;23;20153;-90
2021/08/11 09:16:49;;;;;;;6.45;3.70;;;;;;;;;;6128747;23;20173;-91
2021/08/11 09:19:55;;;;;;;7.07;3.80;;;;;;;;;;6127898;23;20172;-89
2021/08/11 09:23:00;;;;;;;6.95;3.58;;;;;;;;;;6128167;23;20168;-90
2021/08/11 09:26:07;;;;;;;10.55;3.78;;;;;;;;;;6125591;23;20180;-90
2021/08/11 09:29:15;;;;;;;7.47;3.63;;;;;;;;;;6125227;23;20197;-91
2021/08/11 09:32:20;;;;;;;9.63;3.75;;;;;;;;;;6122860;23;20169;-90
2021/08/11 09:35:27;;;;;;;7.72;3.45;;;;;;;;;;6121477;23;20173;-91
2021/08/11 09:38:32;;;;;;;7.25;4.05;;;;;;;;;;6123470;23;20234;-91
2021/08/11 09:41:37;;;;;;;10.88;3.38;;;;;;;;;;6126554;23;20197;-92
2021/08/11 09:44:59;;;;;;;9.63;3.75;;;;;;;;;;6124358;23;20234;-91
2021/08/11 09:48:04;;;;;;;5.97;3.45;;;;;;;;;;6123635;23;20219;-91
2021/08/11 09:51:10;;;;;;;6.57;3.67;;;;;;;;;;6121569;23;20191;-90
2021/08/11 09:54:15;;;;;;;6.65;3.75;;;;;;;;;;6121349;23;20187;-91
2021/08/11 09:57:29;;;;;;;8.77;3.58;;;;;;;;;;6122748;23;20180;-94
2021/08/11 10:00:42;;;;;;;12.18;3.65;;;;;;;;;;6123127;23;20172;-90
2021/08/11 10:03:55;;;;;;;11.13;3.17;;;;;;;;;;6121690;23;20164;-92
2021/08/11 10:07:11;;;;;;;7.65;3.42;;;;;;;;;;6123147;23;20172;-89
2021/08/11 10:10:17;;;;;;;6.90;3.20;;;;;;;;;;6123885;23;20277;-89
2021/08/11 10:13:23;;;;;;;7.05;3.22;;;;;;;;;;6126180;23;20672;-91
2021/08/11 10:16:30;;;;;;;6.70;3.00;;;;;;;;;;6125761;23;20241;-91
2021/08/11 10:19:36;;;;;;;5.82;3.40;;;;;;;;;;6123385;23;20204;-89
2021/08/11 10:22:41;;;;;;;7.85;2.97;;;;;;;;;;6123180;23;20251;-90
2021/08/11 10:25:48;;;;;;;7.20;2.97;;;;;;;;;;6124061;23;20169;-91
2021/08/11 10:28:53;;;;;;;4.30;3.10;;;;;;;;;;6123698;23;20200;-91
2021/08/11 10:32:00;;;;;;;7.38;3.10;;;;;;;;;;6124268;23;20172;-91
2021/08/11 10:35:07;;;;;;;6.28;3.10;;;;;;;;;;6122246;23;20164;-92
2021/08/11 10:38:14;;;;;;;10.23;3.47;;;;;;;;;;6121947;23;20216;-91
2021/08/11 10:41:19;;;;;;;7.53;3.05;;;;;;;;;;6125319;23;20173;-91
2021/08/11 10:44:25;;;;;;;5.70;2.97;;;;;;;;;;6123928;23;20173;-92
2021/08/11 10:47:32;;;;;;;5.60;2.90;;;;;;;;;;6123517;23;20498;-93
2021/08/11 10:50:44;;;;;;;4.82;2.67;;;;;;;;;;6124361;23;20176;-90
2021/08/11 10:54:03;;;;;;;4.93;2.85;;;;;;;;;;6123598;23;20189;-91
2021/08/11 10:57:08;;;;;;;3.42;2.15;;;;;;;;;;6123304;23;20177;-94
2021/08/11 11:00:28;;;;;;;7.45;2.72;;;;;;;;;;6122219;23;20300;-91
2021/08/11 11:03:51;;;;;;;5.05;2.50;;;;;;;;;;6122539;23;20157;-92
2021/08/11 11:07:16;;;;;;;4.63;2.60;;;;;;;;;;6121399;23;20172;-90
2021/08/11 11:10:25;;;;;;;5.43;2.50;;;;;;;;;;6121509;23;20196;-92
2021/08/11 11:13:40;;;;;;;3.90;2.30;;;;;;;;;;6124702;23;20624;-93
2021/08/11 11:17:12;;;;;;;3.47;2.10;;;;;;;;;;6122781;23;20156;-93
2021/08/11 11:20:20;;;;;;;3.33;2.00;;;;;;;;;;6120947;23;20168;-92
2021/08/11 11:23:33;;;;;;;4.00;2.20;;;;;;;;;;6122299;23;20297;-93
2021/08/11 11:26:38;;;;;;;2.47;1.58;;;;;;;;;;6122942;23;20213;-93
2021/08/11 11:29:48;;;;;;;3.03;1.50;;;;;;;;;;6123550;23;20316;-93
2021/08/11 11:32:54;;;;;;;3.15;1.50;;;;;;;;;;6127830;23;20169;-91
2021/08/11 11:36:27;;;;;;;39.33;26.85;;;;;;;;;;6126496;23;20176;-91
2021/08/11 11:39:47;;;;;;;4.45;1.77;;;;;;;;;;6101680;23;20196;-92
2021/08/11 11:43:14;;;;;;;5.25;1.77;;;;;;;;;;6125521;23;20252;-90
2021/08/11 11:46:47;;;;;;;3.13;1.70;;;;;;;;;;6118437;23;20204;-91
2021/08/11 11:50:16;;;;;;;5.28;2.20;;;;;;;;;;6118248;23;20215;-92
2021/08/11 11:53:30;;;;;;;4.05;2.05;;;;;;;;;;6118633;23;20290;-91
2021/08/11 11:56:35;;;;;;;3.33;1.95;;;;;;;;;;6120315;23;20185;-93
2021/08/11 11:59:45;;;;;;;2.95;1.90;;;;;;;;;;6122147;23;20177;-92
2021/08/11 12:02:51;;;;;;;2.97;1.70;;;;;;;;;;6120876;23;20256;-90
2021/08/11 12:05:56;;;;;;;3.90;1.73;;;;;;;;;;6122441;23;20505;-92
2021/08/11 12:09:01;;;;;;;5.28;1.83;;;;;;;;;;6125415;23;20196;-92
2021/08/11 12:12:07;;;;;;;5.20;2.20;;;;;;;;;;6126549;23;20175;-92
2021/08/11 12:15:27;;;;;;;5.20;2.08;;;;;;;;;;6126063;23;20249;-92
2021/08/11 12:18:32;;;;;;;3.40;1.90;;;;;;;;;;6128660;23;20234;-91
2021/08/11 12:21:40;;;;;;;5.38;2.40;;;;;;;;;;6125829;23;20624;-92
2021/08/11 12:24:48;;;;;;;3.58;2.10;;;;;;;;;;6124392;23;20163;-91
2021/08/11 12:28:06;;;;;;;8.68;2.38;;;;;;;;;;6120752;23;20152;-93
2021/08/11 12:31:16;;;;;;;6.03;2.45;;;;;;;;;;6122048;23;20164;-93
2021/08/11 12:34:21;;;;;;;7.47;2.65;;;;;;;;;;6121788;23;20212;-92
2021/08/11 12:37:26;;;;;;;5.18;2.30;;;;;;;;;;6121183;23;20352;-91
2021/08/11 12:40:32;;;;;;;3.05;2.00;;;;;;;;;;6121126;23;20221;-91
2021/08/11 12:43:38;;;;;;;5.05;1.77;;;;;;;;;;6121369;23;20173;-92
2021/08/11 12:46:49;;;;;;;4.30;1.70;;;;;;;;;;6124160;23;20172;-90
2021/08/11 12:49:54;;;;;;;7.18;2.05;;;;;;;;;;6139360;23;20192;-91
2021/08/11 12:52:59;;;;;;;2.47;1.65;;;;;;;;;;6121580;23;20632;-90
2021/08/11 12:56:08;;;;;;;4.75;1.70;;;;;;;;;;6120510;23;20221;-91
2021/08/11 12:59:14;;;;;;;4.50;1.50;;;;;;;;;;6120994;23;20189;-93
2021/08/11 13:02:24;;;;;;;3.78;1.70;;;;;;;;;;6120682;23;20188;-93
2021/08/11 13:05:35;;;;;;;4.22;2.00;;;;;;;;;;6119917;23;20507;-90
2021/08/11 22:02:49;;;;;;;9.85;4.60;;;;;;;;;;6140222;23;20182;-89
2021/08/11 22:05:54;;;;;;;14.48;4.60;;;;;;;;;;6121935;23;20497;-90
2021/08/11 22:12:16;;;;;;;8.32;4.10;;;;;;;;;;6128290;23;20213;-90
2021/08/11 22:15:30;;;;;;;8.00;4.28;;;;;;;;;;6110336;23;20497;-93
2021/08/11 22:18:39;;;;;;;6.95;4.10;;;;;;;;;;6126585;23;20178;-93
2021/08/11 22:21:47;;;;;;;7.63;3.53;;;;;;;;;;6108784;23;20661;-92
2021/08/11 22:24:56;;;;;;;11.13;4.10;;;;;;;;;;6124976;23;20197;-93
2021/08/11 22:28:03;;;;;;;10.73;4.13;;;;;;;;;;6127469;23;20169;-90
2021/08/11 22:31:16;;;;;;;12.95;4.13;;;;;;;;;;6124632;23;20233;-93
2021/08/11 22:37:44;;;;;;;6.70;4.05;;;;;;;;;;6132103;23;20149;-90
2021/08/11 22:48:09;;;;;;;10.63;3.85;;;;;;;;;;6140737;23;20208;-90
2021/08/11 22:51:17;;;;;;;9.82;3.92;;;;;;;;;;6128653;23;20185;-91
2021/08/11 22:54:37;;;;;;;8.07;3.60;;;;;;;;;;6132090;23;20172;-91
2021/08/11 22:57:44;;;;;;;9.07;3.97;;;;;;;;;;6129021;23;20190;-94
2021/08/11 23:00:54;;;;;;;12.52;4.60;;;;;;;;;;6127880;23;20178;-91
2021/08/11 23:04:01;;;;;;;10.55;4.07;;;;;;;;;;6131288;23;20170;-92
2021/08/11 23:07:10;;;;;;;11.30;4.10;;;;;;;;;;6124828;23;20177;-92
2021/08/11 23:10:15;;;;;;;11.30;4.40;;;;;;;;;;6123651;23;20201;-89
2021/08/11 23:13:20;;;;;;;6.32;3.83;;;;;;;;;;6123416;23;20161;-92
2021/08/11 23:16:25;;;;;;;10.00;4.03;;;;;;;;;;6123487;23;20181;-91
2021/08/11 23:19:30;;;;;;;11.18;4.25;;;;;;;;;;6124840;23;20173;-92
2021/08/11 23:22:37;;;;;;;5.85;3.90;;;;;;;;;;6124126;23;20169;-92
2021/08/11 23:25:41;;;;;;;8.48;4.30;;;;;;;;;;6124598;23;20160;-92
2021/08/11 23:28:47;;;;;;;14.20;4.18;;;;;;;;;;6124155;23;20161;-90
2021/08/11 23:31:52;;;;;;;10.77;4.68;;;;;;;;;;6126106;23;20169;-90
2021/08/11 23:34:57;;;;;;;8.07;3.88;;;;;;;;;;6125476;23;20610;-90
2021/08/11 23:38:07;;;;;;;7.78;4.20;;;;;;;;;;6124949;23;20617;-91
2021/08/11 23:41:13;;;;;;;9.15;4.20;;;;;;;;;;6124458;23;20255;-92
2021/08/11 23:44:18;;;;;;;7.68;3.72;;;;;;;;;;6124927;23;20173;-93
2021/08/11 23:47:23;;;;;;;8.75;4.35;;;;;;;;;;6124786;23;20169;-92
2021/08/11 23:50:28;;;;;;;11.80;4.30;;;;;;;;;;6123785;23;20204;-91
2021/08/11 23:53:34;;;;;;;7.55;4.03;;;;;;;;;;6125763;23;20177;-92
2021/08/11 23:56:39;;;;;;;12.65;4.75;;;;;;;;;;6124622;23;20601;-91
2021/08/11 23:59:45;;;;;;;9.90;4.53;;;;;;;;;;6122073;23;20173;-88
